N.dadayli — TCCW7 — position and weather

sailwx.info

Track history (hours):
 
Tides and Currents Weather Stations Pressure Air Temp Water Temp Dewpoint Dewpoint Depression Visibility Wind Speed Wind Dir Waves Ship Positions

N.dadayli

Last reported at 2016-Aug-30 01:14 UTC. Time now 2016-Aug-30 09:05 UTC.
Position N 38°14' E 004°39'.

Length 101 m; draft 7.2 m.

Type: Cargo ship. MMSI: 271000768.

Date/timePositionNaut miles runAvg speedWind from/ knotsBaromVisibWave heightAir tempDewpointWater temp
2016-Aug-30 01:14N 38°14' E 004°39'3210.7
2016-Aug-29 22:15N 38°02' E 004°02'810.8
2016-Aug-29 21:32N 37°60' E 003°53'1110.1
2016-Aug-29 20:24N 37°56' E 003°39'2310.9
2016-Aug-29 18:19N 37°48' E 003°12'1110.4
2016-Aug-29 17:18N 37°44' E 002°59'810.3
2016-Aug-29 16:33N 37°42' E 002°50'1110.7
2016-Aug-29 15:33N 37°38' E 002°38'1110.8
2016-Aug-29 14:33N 37°34' E 002°25'1010.5
2016-Aug-29 13:33N 37°31' E 002°12'1110.3
2016-Aug-29 12:32N 37°27' E 001°60'1010.3
2016-Aug-29 11:33N 37°24' E 001°48'2210.2
2016-Aug-29 09:24N 37°16' E 001°22'910.5
2016-Aug-29 08:32N 37°13' E 001°11'1010.6
2016-Aug-29 07:33N 37°10' E 000°59'1010.2
2016-Aug-29 06:33N 37°07' E 000°47'1010.2
2016-Aug-29 05:33N 37°03' E 000°35'1010.1
2016-Aug-29 04:32N 37°00' E 000°22'1010.3
2016-Aug-29 03:31N 36°57' E 000°10'1210.2
2016-Aug-29 02:18N 36°53' W 000°05'2210.5
2016-Aug-29 00:10N 36°46' W 000°31'2810.8
2016-Aug-28 21:33N 36°36' W 001°04'1010.3
2016-Aug-28 20:33N 36°32' W 001°16'1010.2
2016-Aug-28 19:33N 36°28' W 001°28'9 9.1
2016-Aug-28 18:31N 36°24' W 001°39'10 9.4
2016-Aug-28 17:30N 36°21' W 001°50'9 9.5
2016-Aug-28 16:33N 36°18' W 002°00'9 9.3
2016-Aug-28 15:33N 36°16' W 002°12'9 9.0
2016-Aug-28 14:33N 36°15' W 002°23'9 9.3
2016-Aug-28 13:34N 36°15' W 002°34'10 9.7
2016-Aug-28 12:29N 36°14' W 002°47'9 9.6
2016-Aug-28 11:31N 36°13' W 002°58'14 9.9
2016-Aug-28 10:07N 36°11' W 003°15'2710.1
2016-Aug-28 07:25N 36°07' W 003°49'5912.0
2016-Aug-28 02:28N 36°02' W 005°02'1111.7
2016-Aug-28 01:33N 36°00' W 005°15'1111.4
2016-Aug-28 00:33N 35°57' W 005°29'9210.0
2016-Aug-27 15:20N 36°09' W 007°22'1010.8
2016-Aug-27 14:27N 36°11' W 007°33'6510.4
2016-Aug-27 08:17N 36°44' W 008°42'38 9.2
2016-Aug-27 04:08N 37°13' W 009°12'710.9
2016-Aug-27 03:32N 37°20' W 009°10'1111.2
2016-Aug-27 02:33N 37°31' W 009°09'1110.9
2016-Aug-27 01:33N 37°42' W 009°07'1111.0
2016-Aug-27 00:33N 37°52' W 009°05'1111.1
2016-Aug-26 23:33N 38°04' W 009°04'1110.8
2016-Aug-26 22:33N 38°14' W 009°02'1111.2
2016-Aug-26 21:33N 38°25' W 008°60'8 8.0
2016-Aug-26 20:33N 38°31' W 008°52'1 0.9
2016-Aug-26 19:32N 38°30' W 008°51'0 0.0
2016-Aug-26 18:29N 38°30' W 008°51'0 0.0
2016-Aug-26 17:17N 38°30' W 008°51'0 0.0
2016-Aug-26 16:17N 38°30' W 008°51'0 0.0
2016-Aug-26 15:23N 38°30' W 008°51'0 0.0
2016-Aug-26 14:32N 38°30' W 008°51'0 0.0
2016-Aug-26 13:20N 38°30' W 008°51'0 0.0
2016-Aug-26 11:14N 38°30' W 008°51'0 0.0
2016-Aug-26 10:32N 38°30' W 008°51'0 0.0
2016-Aug-26 09:32N 38°30' W 008°51'0 0.0
2016-Aug-26 07:29N 38°30' W 008°51'0 0.0
2016-Aug-26 06:26N 38°30' W 008°51'0 0.0
2016-Aug-26 04:29N 38°30' W 008°51'0 0.0
2016-Aug-26 03:32N 38°30' W 008°51'0 0.0
2016-Aug-26 02:32N 38°30' W 008°51'0 0.0
2016-Aug-26 01:29N 38°30' W 008°51'0 0.0
2016-Aug-26 00:32N 38°30' W 008°51'0 0.0
2016-Aug-25 23:11N 38°30' W 008°51'0 0.0
2016-Aug-25 22:23N 38°30' W 008°51'0 0.0
2016-Aug-25 21:32N 38°30' W 008°51'0 0.0
2016-Aug-25 20:32N 38°30' W 008°51'0 0.0
2016-Aug-25 19:32N 38°30' W 008°51'0 0.0
2016-Aug-25 18:26N 38°30' W 008°51'0 0.0
2016-Aug-25 17:32N 38°30' W 008°51'3 3.0
2016-Aug-25 16:33N 38°30' W 008°55'1212.2
2016-Aug-25 15:33N 38°22' W 009°07'1010.1
2016-Aug-25 14:33N 38°24' W 009°20'1111.6
2016-Aug-25 13:33N 38°31' W 009°31'1211.7
2016-Aug-25 12:33N 38°39' W 009°43'1212.3
2016-Aug-25 11:34N 38°51' W 009°44'1212.0
2016-Aug-25 10:33N 39°03' W 009°44'1211.9
2016-Aug-25 09:33N 39°15' W 009°45'1211.8
2016-Aug-25 08:33N 39°27' W 009°45'1611.7
2016-Aug-25 07:13N 39°40' W 009°34'912.5
2016-Aug-25 06:30N 39°49' W 009°32'2412.3
2016-Aug-25 04:32N 40°13' W 009°28'7412.3
2016-Aug-24 22:33N 41°26' W 009°13'2612.9
2016-Aug-24 20:31N 41°52' W 009°08'1612.3
2016-Aug-24 19:13N 42°08' W 009°04'911.9
2016-Aug-24 18:30N 42°16' W 009°02'1111.9
2016-Aug-24 17:33N 42°28' W 008°59'  
2016-Aug-20 04:30N 49°45' W 003°31'7 6.9
2016-Aug-20 03:33N 49°48' W 003°22'9 8.7
2016-Aug-20 02:33N 49°53' W 003°11'10 9.9
2016-Aug-20 01:33N 49°58' W 002°58'  
Track history (hours):
 
Tides and Currents Weather Stations Pressure Air Temp Water Temp Dewpoint Dewpoint Depression Visibility Wind Speed Wind Dir Waves Ship Positions

N.dadayli

Last reported at 2016-Aug-30 01:14 UTC. Time now 2016-Aug-30 09:05 UTC.
Position N 38°14' E 004°39'.

Length 101 m; draft 7.2 m.

Type: Cargo ship. MMSI: 271000768.

Date/timePositionNaut miles runAvg speedWind from/ knotsBaromVisibWave heightAir tempDewpointWater temp
2016-Aug-30 01:14N 38°14' E 004°39'3210.7
2016-Aug-29 22:15N 38°02' E 004°02'810.8
2016-Aug-29 21:32N 37°60' E 003°53'1110.1
2016-Aug-29 20:24N 37°56' E 003°39'2310.9
2016-Aug-29 18:19N 37°48' E 003°12'1110.4
2016-Aug-29 17:18N 37°44' E 002°59'810.3
2016-Aug-29 16:33N 37°42' E 002°50'1110.7
2016-Aug-29 15:33N 37°38' E 002°38'1110.8
2016-Aug-29 14:33N 37°34' E 002°25'1010.5
2016-Aug-29 13:33N 37°31' E 002°12'1110.3
2016-Aug-29 12:32N 37°27' E 001°60'1010.3
2016-Aug-29 11:33N 37°24' E 001°48'2210.2
2016-Aug-29 09:24N 37°16' E 001°22'910.5
2016-Aug-29 08:32N 37°13' E 001°11'1010.6
2016-Aug-29 07:33N 37°10' E 000°59'1010.2
2016-Aug-29 06:33N 37°07' E 000°47'1010.2
2016-Aug-29 05:33N 37°03' E 000°35'1010.1
2016-Aug-29 04:32N 37°00' E 000°22'1010.3
2016-Aug-29 03:31N 36°57' E 000°10'1210.2
2016-Aug-29 02:18N 36°53' W 000°05'2210.5
2016-Aug-29 00:10N 36°46' W 000°31'2810.8
2016-Aug-28 21:33N 36°36' W 001°04'1010.3
2016-Aug-28 20:33N 36°32' W 001°16'1010.2
2016-Aug-28 19:33N 36°28' W 001°28'9 9.1
2016-Aug-28 18:31N 36°24' W 001°39'10 9.4
2016-Aug-28 17:30N 36°21' W 001°50'9 9.5
2016-Aug-28 16:33N 36°18' W 002°00'9 9.3
2016-Aug-28 15:33N 36°16' W 002°12'9 9.0
2016-Aug-28 14:33N 36°15' W 002°23'9 9.3
2016-Aug-28 13:34N 36°15' W 002°34'10 9.7
2016-Aug-28 12:29N 36°14' W 002°47'9 9.6
2016-Aug-28 11:31N 36°13' W 002°58'14 9.9
2016-Aug-28 10:07N 36°11' W 003°15'2710.1
2016-Aug-28 07:25N 36°07' W 003°49'5912.0
2016-Aug-28 02:28N 36°02' W 005°02'1111.7
2016-Aug-28 01:33N 36°00' W 005°15'1111.4
2016-Aug-28 00:33N 35°57' W 005°29'9210.0
2016-Aug-27 15:20N 36°09' W 007°22'1010.8
2016-Aug-27 14:27N 36°11' W 007°33'6510.4
2016-Aug-27 08:17N 36°44' W 008°42'38 9.2
2016-Aug-27 04:08N 37°13' W 009°12'710.9
2016-Aug-27 03:32N 37°20' W 009°10'1111.2
2016-Aug-27 02:33N 37°31' W 009°09'1110.9
2016-Aug-27 01:33N 37°42' W 009°07'1111.0
2016-Aug-27 00:33N 37°52' W 009°05'1111.1
2016-Aug-26 23:33N 38°04' W 009°04'1110.8
2016-Aug-26 22:33N 38°14' W 009°02'1111.2
2016-Aug-26 21:33N 38°25' W 008°60'8 8.0
2016-Aug-26 20:33N 38°31' W 008°52'1 0.9
2016-Aug-26 19:32N 38°30' W 008°51'0 0.0
2016-Aug-26 18:29N 38°30' W 008°51'0 0.0
2016-Aug-26 17:17N 38°30' W 008°51'0 0.0
2016-Aug-26 16:17N 38°30' W 008°51'0 0.0
2016-Aug-26 15:23N 38°30' W 008°51'0 0.0
2016-Aug-26 14:32N 38°30' W 008°51'0 0.0
2016-Aug-26 13:20N 38°30' W 008°51'0 0.0
2016-Aug-26 11:14N 38°30' W 008°51'0 0.0
2016-Aug-26 10:32N 38°30' W 008°51'0 0.0
2016-Aug-26 09:32N 38°30' W 008°51'0 0.0
2016-Aug-26 07:29N 38°30' W 008°51'0 0.0
2016-Aug-26 06:26N 38°30' W 008°51'0 0.0
2016-Aug-26 04:29N 38°30' W 008°51'0 0.0
2016-Aug-26 03:32N 38°30' W 008°51'0 0.0
2016-Aug-26 02:32N 38°30' W 008°51'0 0.0
2016-Aug-26 01:29N 38°30' W 008°51'0 0.0
2016-Aug-26 00:32N 38°30' W 008°51'0 0.0
2016-Aug-25 23:11N 38°30' W 008°51'0 0.0
2016-Aug-25 22:23N 38°30' W 008°51'0 0.0
2016-Aug-25 21:32N 38°30' W 008°51'0 0.0
2016-Aug-25 20:32N 38°30' W 008°51'0 0.0
2016-Aug-25 19:32N 38°30' W 008°51'0 0.0
2016-Aug-25 18:26N 38°30' W 008°51'0 0.0
2016-Aug-25 17:32N 38°30' W 008°51'3 3.0
2016-Aug-25 16:33N 38°30' W 008°55'1212.2
2016-Aug-25 15:33N 38°22' W 009°07'1010.1
2016-Aug-25 14:33N 38°24' W 009°20'1111.6
2016-Aug-25 13:33N 38°31' W 009°31'1211.7
2016-Aug-25 12:33N 38°39' W 009°43'1212.3
2016-Aug-25 11:34N 38°51' W 009°44'1212.0
2016-Aug-25 10:33N 39°03' W 009°44'1211.9
2016-Aug-25 09:33N 39°15' W 009°45'1211.8
2016-Aug-25 08:33N 39°27' W 009°45'1611.7
2016-Aug-25 07:13N 39°40' W 009°34'912.5
2016-Aug-25 06:30N 39°49' W 009°32'2412.3
2016-Aug-25 04:32N 40°13' W 009°28'7412.3
2016-Aug-24 22:33N 41°26' W 009°13'2612.9
2016-Aug-24 20:31N 41°52' W 009°08'1612.3
2016-Aug-24 19:13N 42°08' W 009°04'911.9
2016-Aug-24 18:30N 42°16' W 009°02'1111.9
2016-Aug-24 17:33N 42°28' W 008°59'  
2016-Aug-20 04:30N 49°45' W 003°31'7 6.9
2016-Aug-20 03:33N 49°48' W 003°22'9 8.7
2016-Aug-20 02:33N 49°53' W 003°11'10 9.9
2016-Aug-20 01:33N 49°58' W 002°58'  

Dump ship's entire track history